Epic Capri — 9HA2845 — position and weather

sailwx.info

Track history (hours):
 
Tides and Currents Weather Stations Pressure Air Temp Water Temp Dewpoint Dewpoint Depression Visibility Wind Speed Wind Dir Waves Ship Positions

Epic Capri

Last reported at 2017-Jul-17 23:40 UTC. Time now 2017-Jul-21 19:00 UTC.
Position N 34°56' W 013°23'.

Length 99 m; draft 5.6 m.

Type: Ship (hazmat cat B). MMSI: 256325000.

Date/timePositionNaut miles runAvg speedWind from/ knotsBaromVisibWave heightAir tempDewpointWater temp
2017-Jul-17 23:40N 34°56' W 013°23'83 9.9
2017-Jul-17 15:17N 35°48' W 012°05'410.3
2017-Jul-17 14:55N 35°51' W 012°01'2310.3
2017-Jul-17 12:42N 36°05' W 011°39'1610.2
2017-Jul-17 11:05N 36°16' W 011°24'410.1
2017-Jul-17 10:42N 36°18' W 011°20'910.0
2017-Jul-17 09:47N 36°24' W 011°11'3 9.7
2017-Jul-17 09:30N 36°26' W 011°08'5 9.9
2017-Jul-17 09:00N 36°29' W 011°04'5 9.9
2017-Jul-17 08:30N 36°32' W 010°59'510.1
2017-Jul-17 08:00N 36°35' W 010°54'610.4
2017-Jul-17 07:28N 36°39' W 010°49'510.3
2017-Jul-17 07:00N 36°42' W 010°44'510.2
2017-Jul-17 06:30N 36°45' W 010°39'510.0
2017-Jul-17 06:00N 36°48' W 010°34'510.1
2017-Jul-17 05:30N 36°51' W 010°30'610.3
2017-Jul-17 04:57N 36°55' W 010°24'910.2
2017-Jul-17 04:06N 37°01' W 010°16'410.6
2017-Jul-17 03:44N 37°03' W 010°12'310.4
2017-Jul-17 03:29N 37°04' W 010°09'510.2
2017-Jul-17 03:00N 37°08' W 010°04'510.2
2017-Jul-17 02:30N 37°11' W 009°59'510.3
2017-Jul-17 01:59N 37°14' W 009°54'510.7
2017-Jul-17 01:30N 37°17' W 009°49'510.5
2017-Jul-17 01:00N 37°21' W 009°44'510.5
2017-Jul-17 00:30N 37°24' W 009°39'510.6
2017-Jul-17 00:00N 37°28' W 009°34'510.6
2017-Jul-16 23:30N 37°31' W 009°29'610.6
2017-Jul-16 22:58N 37°35' W 009°24'510.7
2017-Jul-16 22:30N 37°38' W 009°19'510.8
2017-Jul-16 22:00N 37°42' W 009°14'5 9.9
2017-Jul-16 21:30N 37°45' W 009°09'510.4
2017-Jul-16 21:00N 37°48' W 009°04'5 9.8
2017-Jul-16 20:30N 37°51' W 008°59'5 9.6
2017-Jul-16 20:00N 37°54' W 008°54'3 5.7
2017-Jul-16 19:28N 37°57' W 008°53'0 0.0
2017-Jul-16 18:58N 37°57' W 008°53'0 0.0
2017-Jul-16 18:28N 37°57' W 008°53'0 0.0
2017-Jul-16 17:58N 37°57' W 008°53'0 0.0
2017-Jul-16 17:28N 37°57' W 008°53'0 0.0
2017-Jul-16 16:58N 37°57' W 008°53'0 0.0
2017-Jul-16 16:28N 37°57' W 008°53'0 0.0
2017-Jul-16 15:58N 37°57' W 008°53'0 0.0
2017-Jul-16 15:28N 37°57' W 008°53'0 0.0
2017-Jul-16 14:58N 37°57' W 008°53'0 0.0
2017-Jul-16 14:28N 37°57' W 008°53'0 0.0
2017-Jul-16 13:58N 37°57' W 008°53'0 0.0
2017-Jul-16 13:28N 37°57' W 008°53'0 0.0
2017-Jul-16 12:58N 37°57' W 008°53'0 0.0
2017-Jul-16 12:28N 37°57' W 008°53'0 0.0
2017-Jul-16 11:58N 37°57' W 008°53'0 0.0
2017-Jul-16 11:28N 37°57' W 008°53'0 0.0
2017-Jul-16 10:55N 37°57' W 008°53'0 0.0
2017-Jul-16 10:28N 37°57' W 008°53'0 0.0
2017-Jul-16 09:58N 37°57' W 008°53'0 0.0
2017-Jul-16 09:28N 37°57' W 008°53'0 0.0
2017-Jul-16 08:58N 37°57' W 008°53'0 0.0
2017-Jul-16 08:28N 37°57' W 008°53'0 0.0
2017-Jul-16 07:58N 37°57' W 008°53'0 0.0
2017-Jul-16 07:28N 37°57' W 008°53'0 0.0
2017-Jul-16 06:58N 37°57' W 008°53'0 0.0
2017-Jul-16 06:28N 37°57' W 008°53'0 0.0
2017-Jul-16 05:58N 37°57' W 008°53'0 0.0
2017-Jul-16 05:28N 37°57' W 008°53'0 0.0
2017-Jul-16 04:58N 37°57' W 008°53'0 0.0
2017-Jul-16 04:28N 37°57' W 008°53'0 0.0
2017-Jul-16 03:58N 37°57' W 008°53'0 0.0
2017-Jul-16 03:28N 37°57' W 008°53'0 0.0
2017-Jul-16 02:55N 37°57' W 008°53'0 0.0
2017-Jul-16 02:28N 37°57' W 008°53'0 0.0
2017-Jul-16 01:58N 37°57' W 008°53'0 0.0
2017-Jul-16 01:28N 37°57' W 008°53'0 0.0
2017-Jul-16 00:58N 37°57' W 008°53'0 0.0
2017-Jul-16 00:28N 37°57' W 008°53'0 0.0
2017-Jul-15 23:59N 37°57' W 008°53'0 0.0
2017-Jul-15 23:30N 37°57' W 008°53'0 0.0
2017-Jul-15 23:00N 37°57' W 008°53'0 0.0
2017-Jul-15 22:30N 37°57' W 008°53'0 0.0
2017-Jul-15 22:01N 37°57' W 008°53'0 0.0
2017-Jul-15 21:30N 37°57' W 008°53'0 0.0
2017-Jul-15 21:00N 37°57' W 008°53'0 0.0
2017-Jul-15 20:30N 37°57' W 008°53'0 0.0
2017-Jul-15 20:00N 37°57' W 008°53'0 0.0
2017-Jul-15 19:30N 37°57' W 008°53'0 0.0
2017-Jul-15 19:00N 37°57' W 008°53'0 0.0
2017-Jul-15 18:30N 37°57' W 008°53'0 0.0
2017-Jul-15 18:01N 37°57' W 008°53'0 0.0
2017-Jul-15 17:31N 37°57' W 008°53'0 0.0
2017-Jul-15 17:00N 37°57' W 008°53'0 0.0
2017-Jul-15 16:30N 37°57' W 008°53'0 0.0
2017-Jul-15 16:00N 37°57' W 008°53'0 0.0
2017-Jul-15 15:30N 37°57' W 008°53'0 0.0
2017-Jul-15 15:00N 37°57' W 008°53'0 0.4
2017-Jul-15 14:00N 37°57' W 008°53'2 5.0
2017-Jul-15 13:30N 37°54' W 008°53'1 1.0
2017-Jul-15 13:00N 37°54' W 008°54'2 4.8
2017-Jul-15 12:30N 37°53' W 008°56'0 0.7
2017-Jul-15 12:01N 37°53' W 008°56'1 1.1
2017-Jul-15 11:30N 37°53' W 008°56'1 1.0
2017-Jul-15 11:00N 37°53' W 008°57'0 1.0
2017-Jul-15 10:31N 37°54' W 008°57'0 1.0
2017-Jul-15 10:00N 37°54' W 008°58'1 2.9
2017-Jul-15 09:30N 37°55' W 008°59'611.0
2017-Jul-15 09:00N 38°00' W 009°01'510.7
2017-Jul-15 08:31N 38°03' W 009°07'510.7
2017-Jul-15 08:00N 38°05' W 009°14'611.0
2017-Jul-15 07:30N 38°07' W 009°20'511.0
2017-Jul-15 07:00N 38°09' W 009°27'510.8
2017-Jul-15 06:30N 38°10' W 009°33'610.6
2017-Jul-15 05:59N 38°12' W 009°40'510.6
2017-Jul-15 05:30N 38°14' W 009°46'510.7
2017-Jul-15 05:00N 38°16' W 009°52'510.5
2017-Jul-15 04:30N 38°18' W 009°59'510.6
2017-Jul-15 04:00N 38°20' W 010°05'611.4
2017-Jul-15 03:29N 38°26' W 010°07'611.8
2017-Jul-15 03:00N 38°31' W 010°09'612.0
2017-Jul-15 02:30N 38°37' W 010°11'611.8
2017-Jul-15 02:00N 38°43' W 010°12'611.5
2017-Jul-15 01:30N 38°48' W 010°12'611.2
2017-Jul-15 01:00N 38°54' W 010°12'611.3
2017-Jul-15 00:30N 38°60' W 010°12'611.7
2017-Jul-15 00:00N 39°05' W 010°08'611.8
2017-Jul-14 23:30N 39°10' W 010°05'612.2
2017-Jul-14 23:00N 39°16' W 010°02'611.3
2017-Jul-14 22:30N 39°21' W 009°58'611.6
2017-Jul-14 21:59N 39°26' W 009°55'511.1
2017-Jul-14 21:30N 39°31' W 009°51'611.4
2017-Jul-14 21:00N 39°36' W 009°48'611.7
2017-Jul-14 20:30N 39°41' W 009°44'611.5
2017-Jul-14 20:01N 39°46' W 009°41'611.6
2017-Jul-14 19:30N 39°51' W 009°37'611.3
2017-Jul-14 19:00N 39°56' W 009°34'511.0
2017-Jul-14 18:31N 40°01' W 009°31'811.2
2017-Jul-14 17:47N 40°08' W 009°26'811.0
2017-Jul-14 17:03N 40°16' W 009°21'111.1
2017-Jul-14 17:00N 40°16' W 009°21'611.2
2017-Jul-14 16:30N 40°21' W 009°17'611.1
2017-Jul-14 16:00N 40°26' W 009°14'611.2
2017-Jul-14 15:30N 40°31' W 009°10'611.3
2017-Jul-14 15:00N 40°36' W 009°07'511.0
2017-Jul-14 14:30N 40°41' W 009°04'711.0
2017-Jul-14 13:52N 40°47' W 008°60'410.9
2017-Jul-14 13:30N 40°51' W 008°58'1311.0
2017-Jul-14 12:18N 41°03' W 008°50'510.5
2017-Jul-14 11:49N 41°07' W 008°47'3 9.4
2017-Jul-14 11:30N 41°10' W 008°45'2 4.2
2017-Jul-14 10:57N 41°11' W 008°42'0 0.2
2017-Jul-14 10:30N 41°11' W 008°43'0 0.0
2017-Jul-14 10:00N 41°11' W 008°43'0 0.0
2017-Jul-14 09:24N 41°11' W 008°43'0 0.0
2017-Jul-14 09:00N 41°11' W 008°43'0 0.0
2017-Jul-14 08:30N 41°11' W 008°43'0 0.0
2017-Jul-14 04:48N 41°11' W 008°43'0 0.0
2017-Jul-14 04:29N 41°11' W 008°43'0 0.0
2017-Jul-14 04:00N 41°11' W 008°43'0 0.0
2017-Jul-14 01:14N 41°11' W 008°43'0 0.0
2017-Jul-14 00:59N 41°11' W 008°43'0 0.0
2017-Jul-13 22:25N 41°11' W 008°43'0 0.0
2017-Jul-13 21:56N 41°11' W 008°43'0 0.0
2017-Jul-13 21:30N 41°11' W 008°43'0 0.0
2017-Jul-13 20:27N 41°11' W 008°43'0 0.0
2017-Jul-13 20:00N 41°11' W 008°43'0 0.0
2017-Jul-13 19:30N 41°11' W 008°43'0 0.0
2017-Jul-13 18:42N 41°11' W 008°43'0 0.0
2017-Jul-13 15:44N 41°11' W 008°43'27 1.3
2017-Jul-12 18:47N 40°48' W 008°60'3 9.6
2017-Jul-12 18:30N 40°46' W 009°02'63 9.5
2017-Jul-12 11:51N 39°48' W 009°35'4 9.6
2017-Jul-12 11:26N 39°44' W 009°37'5 9.6
2017-Jul-12 10:57N 39°40' W 009°40'4 9.8
2017-Jul-12 10:30N 39°36' W 009°42'5 9.8
2017-Jul-12 10:00N 39°32' W 009°45'5 9.8
2017-Jul-12 09:29N 39°27' W 009°48'11 9.5
2017-Jul-12 08:22N 39°17' W 009°54'3 9.3
2017-Jul-12 08:00N 39°14' W 009°55'5 9.1
2017-Jul-12 07:30N 39°10' W 009°57'5 9.9
2017-Jul-12 07:00N 39°05' W 009°57'510.0
2017-Jul-12 06:30N 38°60' W 009°57'5 9.4
2017-Jul-12 06:01N 38°55' W 009°57'5 9.0
2017-Jul-12 05:30N 38°51' W 009°57'5 9.1
2017-Jul-12 05:00N 38°46' W 009°57'5 9.4
2017-Jul-12 04:30N 38°41' W 009°57'5 9.2
2017-Jul-12 04:00N 38°37' W 009°55'5 9.0
2017-Jul-12 03:31N 38°33' W 009°54'4 8.7
2017-Jul-12 03:00N 38°28' W 009°53'5 9.0
2017-Jul-12 02:30N 38°24' W 009°52'10 8.7
2017-Jul-12 01:24N 38°17' W 009°43'410.0
2017-Jul-12 01:00N 38°15' W 009°39'5 9.9
2017-Jul-12 00:29N 38°13' W 009°33'610.1
2017-Jul-11 23:56N 38°10' W 009°26'410.5
2017-Jul-11 23:30N 38°08' W 009°21'510.3
2017-Jul-11 23:00N 38°06' W 009°16'510.0
2017-Jul-11 22:30N 38°04' W 009°10'510.3
2017-Jul-11 22:00N 38°01' W 009°04'510.2
2017-Jul-11 21:30N 37°59' W 008°59'5 9.1
2017-Jul-11 21:00N 37°55' W 008°54'2 3.9
2017-Jul-11 20:30N 37°55' W 008°52'0 0.0
2017-Jul-11 20:00N 37°55' W 008°52'0 0.0
2017-Jul-11 19:30N 37°55' W 008°52'0 0.0
2017-Jul-11 19:00N 37°55' W 008°52'0 0.0
2017-Jul-11 18:30N 37°55' W 008°52'0 0.0
2017-Jul-11 18:00N 37°55' W 008°52'0 0.0
2017-Jul-11 17:30N 37°55' W 008°52'0 0.0
2017-Jul-11 17:00N 37°55' W 008°52'0 0.0
2017-Jul-11 16:30N 37°55' W 008°52'0 0.0
2017-Jul-11 16:00N 37°55' W 008°52'0 0.0
2017-Jul-11 15:30N 37°55' W 008°52'0 0.0
2017-Jul-11 15:00N 37°55' W 008°52'0 0.0
2017-Jul-11 14:30N 37°55' W 008°52'0 0.0
2017-Jul-11 14:00N 37°55' W 008°52'0 0.0
2017-Jul-11 13:30N 37°55' W 008°52'0 0.0
2017-Jul-11 13:00N 37°55' W 008°52'0 0.0
2017-Jul-11 12:30N 37°55' W 008°52'0 0.0
2017-Jul-11 12:00N 37°55' W 008°52'0 0.0
2017-Jul-11 11:30N 37°55' W 008°52'0 0.0
2017-Jul-11 11:00N 37°55' W 008°52'0 0.0
2017-Jul-11 10:30N 37°55' W 008°52'0 0.0
2017-Jul-11 10:00N 37°55' W 008°52'0 0.0
2017-Jul-11 09:30N 37°55' W 008°52'0 0.0
2017-Jul-11 09:00N 37°55' W 008°52'0 0.0
2017-Jul-11 08:30N 37°55' W 008°52'0 0.0
2017-Jul-11 08:00N 37°55' W 008°52'0 0.0
2017-Jul-11 07:30N 37°55' W 008°52'0 0.1
2017-Jul-11 07:00N 37°55' W 008°52'0 0.0
2017-Jul-11 06:30N 37°55' W 008°52'0 0.0
2017-Jul-11 06:00N 37°55' W 008°52'0 0.0
2017-Jul-11 05:30N 37°55' W 008°52'0 0.0
2017-Jul-11 05:00N 37°55' W 008°52'0 0.0
2017-Jul-11 04:30N 37°55' W 008°52'0 0.0
2017-Jul-11 04:00N 37°55' W 008°52'0 0.0
2017-Jul-11 03:30N 37°55' W 008°52'0 0.0
2017-Jul-11 03:00N 37°55' W 008°52'0 0.0
2017-Jul-11 02:30N 37°55' W 008°52'0 0.0
2017-Jul-11 02:00N 37°55' W 008°52'0 0.0
2017-Jul-11 01:30N 37°55' W 008°52'0 0.0
2017-Jul-11 01:00N 37°55' W 008°52'0 0.0
2017-Jul-11 00:30N 37°55' W 008°52'0 0.0
2017-Jul-11 00:00N 37°55' W 008°52'0 0.0
2017-Jul-10 23:30N 37°55' W 008°52'0 0.0
2017-Jul-10 23:00N 37°55' W 008°52'0 0.0
2017-Jul-10 22:30N 37°55' W 008°52'0 0.0
2017-Jul-10 22:00N 37°55' W 008°52'0 0.0
2017-Jul-10 21:30N 37°55' W 008°52'0 0.1
2017-Jul-10 21:00N 37°55' W 008°52'0 0.0
2017-Jul-10 20:30N 37°55' W 008°52'0 0.0
2017-Jul-10 20:00N 37°55' W 008°52'0 0.0
2017-Jul-10 19:30N 37°55' W 008°52'0 0.0
2017-Jul-10 19:00N 37°55' W 008°52'0 0.0
2017-Jul-10 18:30N 37°55' W 008°52'0 0.0
2017-Jul-10 18:00N 37°55' W 008°52'0 0.0
2017-Jul-10 17:30N 37°55' W 008°52'0 0.0
2017-Jul-10 17:00N 37°55' W 008°52'0 0.0
2017-Jul-10 16:30N 37°55' W 008°52'0 0.0
2017-Jul-10 15:54N 37°55' W 008°52'0 0.0
2017-Jul-10 15:30N 37°55' W 008°52'0 0.0
2017-Jul-10 15:00N 37°55' W 008°52'0 0.0
2017-Jul-10 14:30N 37°55' W 008°52'0 0.0
2017-Jul-10 14:00N 37°55' W 008°52'0 0.0
2017-Jul-10 13:30N 37°55' W 008°52'0 0.0
2017-Jul-10 13:00N 37°55' W 008°52'0 0.0
2017-Jul-10 12:30N 37°55' W 008°52'0 0.0
2017-Jul-10 12:00N 37°55' W 008°52'0 0.0
2017-Jul-10 11:30N 37°55' W 008°52'0 0.0
2017-Jul-10 11:00N 37°55' W 008°52'0 0.0
2017-Jul-10 10:30N 37°55' W 008°52'0 0.0
2017-Jul-10 10:00N 37°55' W 008°52'0 0.0
2017-Jul-10 09:30N 37°55' W 008°52'0 0.0
2017-Jul-10 09:00N 37°55' W 008°52'0 0.0
2017-Jul-10 08:30N 37°55' W 008°52'0 0.0
2017-Jul-10 08:00N 37°55' W 008°52'0 0.0
2017-Jul-10 07:30N 37°55' W 008°52'0 0.0
2017-Jul-10 07:00N 37°55' W 008°52'0 0.0
2017-Jul-10 06:30N 37°55' W 008°52'0 0.0
2017-Jul-10 06:00N 37°55' W 008°52'0 0.0
2017-Jul-10 05:30N 37°55' W 008°52'0 0.0
2017-Jul-10 05:00N 37°55' W 008°52'0 0.0
2017-Jul-10 04:30N 37°55' W 008°52'0 0.0
2017-Jul-10 04:00N 37°55' W 008°52'0 0.0
2017-Jul-10 03:30N 37°55' W 008°52'0 0.0
2017-Jul-10 03:00N 37°55' W 008°52'0 0.0
2017-Jul-10 02:30N 37°55' W 008°52'0 0.0
2017-Jul-10 02:00N 37°55' W 008°52'0 0.0
2017-Jul-10 01:30N 37°55' W 008°52'0 0.0
2017-Jul-10 01:00N 37°55' W 008°52'0 0.0
2017-Jul-10 00:30N 37°55' W 008°52'0 0.0
2017-Jul-10 00:00N 37°55' W 008°52'0 0.0
2017-Jul-09 23:30N 37°55' W 008°52'0 0.0
2017-Jul-09 23:00N 37°55' W 008°52'0 0.0
2017-Jul-09 22:30N 37°55' W 008°52'0 0.0
2017-Jul-09 22:00N 37°55' W 008°52'0 0.0
2017-Jul-09 21:30N 37°55' W 008°52'0 0.0
2017-Jul-09 21:00N 37°55' W 008°52'0 0.0
2017-Jul-09 20:30N 37°55' W 008°52'0 0.0
2017-Jul-09 20:00N 37°55' W 008°52'0 0.0
2017-Jul-09 19:30N 37°55' W 008°52'0 0.0
2017-Jul-09 19:00N 37°55' W 008°52'0 0.0
2017-Jul-09 18:30N 37°55' W 008°52'0 0.0
2017-Jul-09 18:00N 37°55' W 008°52'0 0.0
2017-Jul-09 17:30N 37°55' W 008°52'0 0.0
2017-Jul-09 17:00N 37°55' W 008°52'0 0.0
2017-Jul-09 16:30N 37°55' W 008°52'0 0.1
2017-Jul-09 16:00N 37°55' W 008°52'0 0.0
2017-Jul-09 15:30N 37°55' W 008°52'0 0.0
2017-Jul-09 15:00N 37°55' W 008°52'0 0.0
2017-Jul-09 14:30N 37°55' W 008°52'0 0.0
2017-Jul-09 14:00N 37°55' W 008°52'0 0.0
2017-Jul-09 13:30N 37°55' W 008°52'0 0.0
2017-Jul-09 13:00N 37°55' W 008°52'0 0.0
2017-Jul-09 12:30N 37°55' W 008°52'0 0.0
2017-Jul-09 12:00N 37°55' W 008°52'0 0.0
2017-Jul-09 11:30N 37°55' W 008°52'0 0.0
2017-Jul-09 11:00N 37°55' W 008°52'0 0.0
2017-Jul-09 10:30N 37°55' W 008°52'0 0.0
2017-Jul-09 10:00N 37°55' W 008°52'1 1.1
2017-Jul-09 09:30N 37°56' W 008°52'2 3.1
2017-Jul-09 08:59N 37°57' W 008°53'0 0.0
2017-Jul-09 08:29N 37°57' W 008°53'0 0.0
2017-Jul-09 07:59N 37°57' W 008°53'0 0.0
2017-Jul-09 07:29N 37°57' W 008°53'0 0.0
2017-Jul-09 06:58N 37°57' W 008°53'0 0.0
2017-Jul-09 06:29N 37°57' W 008°53'0 0.0
2017-Jul-09 05:58N 37°57' W 008°53'0 0.0
2017-Jul-09 05:29N 37°57' W 008°53'0 0.0
2017-Jul-09 04:59N 37°57' W 008°53'0 0.0
2017-Jul-09 04:28N 37°57' W 008°53'0 0.0
2017-Jul-09 03:58N 37°57' W 008°53'0 0.0
2017-Jul-09 03:28N 37°57' W 008°53'0 0.0
2017-Jul-09 02:59N 37°57' W 008°53'0 0.0
2017-Jul-09 02:29N 37°57' W 008°53'0 0.0
2017-Jul-09 01:59N 37°57' W 008°53'0 0.0
2017-Jul-09 01:29N 37°57' W 008°53'0 0.0
2017-Jul-09 00:58N 37°57' W 008°53'0 0.0
2017-Jul-09 00:26N 37°57' W 008°53'0 0.0
2017-Jul-08 23:59N 37°57' W 008°53'0 0.0
2017-Jul-08 23:31N 37°57' W 008°53'0 0.0
2017-Jul-08 23:01N 37°57' W 008°53'0 0.0
2017-Jul-08 22:31N 37°57' W 008°53'0 0.0
2017-Jul-08 22:00N 37°57' W 008°53'0 0.0
2017-Jul-08 21:31N 37°57' W 008°53'0 0.0
2017-Jul-08 21:00N 37°57' W 008°53'0 0.0
2017-Jul-08 20:30N 37°57' W 008°53'0 0.0
2017-Jul-08 20:01N 37°57' W 008°53'0 0.0
2017-Jul-08 19:31N 37°57' W 008°53'0 0.0
2017-Jul-08 19:01N 37°57' W 008°53'0 0.0
2017-Jul-08 18:30N 37°57' W 008°53'0 0.0
2017-Jul-08 18:01N 37°57' W 008°53'0 0.0
2017-Jul-08 17:31N 37°57' W 008°53'0 0.0
2017-Jul-08 17:01N 37°57' W 008°53'0 0.0
2017-Jul-08 16:31N 37°57' W 008°53'0 0.0
2017-Jul-08 16:01N 37°57' W 008°53'0 0.0
2017-Jul-08 15:31N 37°57' W 008°53'0 0.0
2017-Jul-08 15:01N 37°57' W 008°53'0 0.0
2017-Jul-08 14:01N 37°57' W 008°53'0 0.0
2017-Jul-08 13:31N 37°57' W 008°53'0 0.0
2017-Jul-08 13:01N 37°57' W 008°53'0 0.0
2017-Jul-08 12:31N 37°57' W 008°53'0 0.0
2017-Jul-08 12:00N 37°57' W 008°53'0 0.0
2017-Jul-08 11:31N 37°57' W 008°53'0 0.0
2017-Jul-08 11:00N 37°57' W 008°53'0 0.0
2017-Jul-08 10:31N 37°57' W 008°53'0 0.0
2017-Jul-08 10:01N 37°57' W 008°53'0 0.4
2017-Jul-08 09:30N 37°57' W 008°53'2 4.1
2017-Jul-08 09:01N 37°55' W 008°54'4 8.0
2017-Jul-08 08:31N 37°58' W 008°57'510.3
2017-Jul-08 08:01N 38°01' W 009°02'510.4
2017-Jul-08 07:31N 38°03' W 009°08'510.2
2017-Jul-08 07:01N 38°05' W 009°14'510.4
2017-Jul-08 06:30N 38°07' W 009°21'510.4
2017-Jul-08 06:00N 38°09' W 009°27'1310.1
2017-Jul-08 04:46N 38°13' W 009°42'  
Track history (hours):
 
Tides and Currents Weather Stations Pressure Air Temp Water Temp Dewpoint Dewpoint Depression Visibility Wind Speed Wind Dir Waves Ship Positions

Epic Capri

Last reported at 2017-Jul-17 23:40 UTC. Time now 2017-Jul-21 19:00 UTC.
Position N 34°56' W 013°23'.

Length 99 m; draft 5.6 m.

Type: Ship (hazmat cat B). MMSI: 256325000.

Date/timePositionNaut miles runAvg speedWind from/ knotsBaromVisibWave heightAir tempDewpointWater temp
2017-Jul-17 23:40N 34°56' W 013°23'83 9.9
2017-Jul-17 15:17N 35°48' W 012°05'410.3
2017-Jul-17 14:55N 35°51' W 012°01'2310.3
2017-Jul-17 12:42N 36°05' W 011°39'1610.2
2017-Jul-17 11:05N 36°16' W 011°24'410.1
2017-Jul-17 10:42N 36°18' W 011°20'910.0
2017-Jul-17 09:47N 36°24' W 011°11'3 9.7
2017-Jul-17 09:30N 36°26' W 011°08'5 9.9
2017-Jul-17 09:00N 36°29' W 011°04'5 9.9
2017-Jul-17 08:30N 36°32' W 010°59'510.1
2017-Jul-17 08:00N 36°35' W 010°54'610.4
2017-Jul-17 07:28N 36°39' W 010°49'510.3
2017-Jul-17 07:00N 36°42' W 010°44'510.2
2017-Jul-17 06:30N 36°45' W 010°39'510.0
2017-Jul-17 06:00N 36°48' W 010°34'510.1
2017-Jul-17 05:30N 36°51' W 010°30'610.3
2017-Jul-17 04:57N 36°55' W 010°24'910.2
2017-Jul-17 04:06N 37°01' W 010°16'410.6
2017-Jul-17 03:44N 37°03' W 010°12'310.4
2017-Jul-17 03:29N 37°04' W 010°09'510.2
2017-Jul-17 03:00N 37°08' W 010°04'510.2
2017-Jul-17 02:30N 37°11' W 009°59'510.3
2017-Jul-17 01:59N 37°14' W 009°54'510.7
2017-Jul-17 01:30N 37°17' W 009°49'510.5
2017-Jul-17 01:00N 37°21' W 009°44'510.5
2017-Jul-17 00:30N 37°24' W 009°39'510.6
2017-Jul-17 00:00N 37°28' W 009°34'510.6
2017-Jul-16 23:30N 37°31' W 009°29'610.6
2017-Jul-16 22:58N 37°35' W 009°24'510.7
2017-Jul-16 22:30N 37°38' W 009°19'510.8
2017-Jul-16 22:00N 37°42' W 009°14'5 9.9
2017-Jul-16 21:30N 37°45' W 009°09'510.4
2017-Jul-16 21:00N 37°48' W 009°04'5 9.8
2017-Jul-16 20:30N 37°51' W 008°59'5 9.6
2017-Jul-16 20:00N 37°54' W 008°54'3 5.7
2017-Jul-16 19:28N 37°57' W 008°53'0 0.0
2017-Jul-16 18:58N 37°57' W 008°53'0 0.0
2017-Jul-16 18:28N 37°57' W 008°53'0 0.0
2017-Jul-16 17:58N 37°57' W 008°53'0 0.0
2017-Jul-16 17:28N 37°57' W 008°53'0 0.0
2017-Jul-16 16:58N 37°57' W 008°53'0 0.0
2017-Jul-16 16:28N 37°57' W 008°53'0 0.0
2017-Jul-16 15:58N 37°57' W 008°53'0 0.0
2017-Jul-16 15:28N 37°57' W 008°53'0 0.0
2017-Jul-16 14:58N 37°57' W 008°53'0 0.0
2017-Jul-16 14:28N 37°57' W 008°53'0 0.0
2017-Jul-16 13:58N 37°57' W 008°53'0 0.0
2017-Jul-16 13:28N 37°57' W 008°53'0 0.0
2017-Jul-16 12:58N 37°57' W 008°53'0 0.0
2017-Jul-16 12:28N 37°57' W 008°53'0 0.0
2017-Jul-16 11:58N 37°57' W 008°53'0 0.0
2017-Jul-16 11:28N 37°57' W 008°53'0 0.0
2017-Jul-16 10:55N 37°57' W 008°53'0 0.0
2017-Jul-16 10:28N 37°57' W 008°53'0 0.0
2017-Jul-16 09:58N 37°57' W 008°53'0 0.0
2017-Jul-16 09:28N 37°57' W 008°53'0 0.0
2017-Jul-16 08:58N 37°57' W 008°53'0 0.0
2017-Jul-16 08:28N 37°57' W 008°53'0 0.0
2017-Jul-16 07:58N 37°57' W 008°53'0 0.0
2017-Jul-16 07:28N 37°57' W 008°53'0 0.0
2017-Jul-16 06:58N 37°57' W 008°53'0 0.0
2017-Jul-16 06:28N 37°57' W 008°53'0 0.0
2017-Jul-16 05:58N 37°57' W 008°53'0 0.0
2017-Jul-16 05:28N 37°57' W 008°53'0 0.0
2017-Jul-16 04:58N 37°57' W 008°53'0 0.0
2017-Jul-16 04:28N 37°57' W 008°53'0 0.0
2017-Jul-16 03:58N 37°57' W 008°53'0 0.0
2017-Jul-16 03:28N 37°57' W 008°53'0 0.0
2017-Jul-16 02:55N 37°57' W 008°53'0 0.0
2017-Jul-16 02:28N 37°57' W 008°53'0 0.0
2017-Jul-16 01:58N 37°57' W 008°53'0 0.0
2017-Jul-16 01:28N 37°57' W 008°53'0 0.0
2017-Jul-16 00:58N 37°57' W 008°53'0 0.0
2017-Jul-16 00:28N 37°57' W 008°53'0 0.0
2017-Jul-15 23:59N 37°57' W 008°53'0 0.0
2017-Jul-15 23:30N 37°57' W 008°53'0 0.0
2017-Jul-15 23:00N 37°57' W 008°53'0 0.0
2017-Jul-15 22:30N 37°57' W 008°53'0 0.0
2017-Jul-15 22:01N 37°57' W 008°53'0 0.0
2017-Jul-15 21:30N 37°57' W 008°53'0 0.0
2017-Jul-15 21:00N 37°57' W 008°53'0 0.0
2017-Jul-15 20:30N 37°57' W 008°53'0 0.0
2017-Jul-15 20:00N 37°57' W 008°53'0 0.0
2017-Jul-15 19:30N 37°57' W 008°53'0 0.0
2017-Jul-15 19:00N 37°57' W 008°53'0 0.0
2017-Jul-15 18:30N 37°57' W 008°53'0 0.0
2017-Jul-15 18:01N 37°57' W 008°53'0 0.0
2017-Jul-15 17:31N 37°57' W 008°53'0 0.0
2017-Jul-15 17:00N 37°57' W 008°53'0 0.0
2017-Jul-15 16:30N 37°57' W 008°53'0 0.0
2017-Jul-15 16:00N 37°57' W 008°53'0 0.0
2017-Jul-15 15:30N 37°57' W 008°53'0 0.0
2017-Jul-15 15:00N 37°57' W 008°53'0 0.4
2017-Jul-15 14:00N 37°57' W 008°53'2 5.0
2017-Jul-15 13:30N 37°54' W 008°53'1 1.0
2017-Jul-15 13:00N 37°54' W 008°54'2 4.8
2017-Jul-15 12:30N 37°53' W 008°56'0 0.7
2017-Jul-15 12:01N 37°53' W 008°56'1 1.1
2017-Jul-15 11:30N 37°53' W 008°56'1 1.0
2017-Jul-15 11:00N 37°53' W 008°57'0 1.0
2017-Jul-15 10:31N 37°54' W 008°57'0 1.0
2017-Jul-15 10:00N 37°54' W 008°58'1 2.9
2017-Jul-15 09:30N 37°55' W 008°59'611.0
2017-Jul-15 09:00N 38°00' W 009°01'510.7
2017-Jul-15 08:31N 38°03' W 009°07'510.7
2017-Jul-15 08:00N 38°05' W 009°14'611.0
2017-Jul-15 07:30N 38°07' W 009°20'511.0
2017-Jul-15 07:00N 38°09' W 009°27'510.8
2017-Jul-15 06:30N 38°10' W 009°33'610.6
2017-Jul-15 05:59N 38°12' W 009°40'510.6
2017-Jul-15 05:30N 38°14' W 009°46'510.7
2017-Jul-15 05:00N 38°16' W 009°52'510.5
2017-Jul-15 04:30N 38°18' W 009°59'510.6
2017-Jul-15 04:00N 38°20' W 010°05'611.4
2017-Jul-15 03:29N 38°26' W 010°07'611.8
2017-Jul-15 03:00N 38°31' W 010°09'612.0
2017-Jul-15 02:30N 38°37' W 010°11'611.8
2017-Jul-15 02:00N 38°43' W 010°12'611.5
2017-Jul-15 01:30N 38°48' W 010°12'611.2
2017-Jul-15 01:00N 38°54' W 010°12'611.3
2017-Jul-15 00:30N 38°60' W 010°12'611.7
2017-Jul-15 00:00N 39°05' W 010°08'611.8
2017-Jul-14 23:30N 39°10' W 010°05'612.2
2017-Jul-14 23:00N 39°16' W 010°02'611.3
2017-Jul-14 22:30N 39°21' W 009°58'611.6
2017-Jul-14 21:59N 39°26' W 009°55'511.1
2017-Jul-14 21:30N 39°31' W 009°51'611.4
2017-Jul-14 21:00N 39°36' W 009°48'611.7
2017-Jul-14 20:30N 39°41' W 009°44'611.5
2017-Jul-14 20:01N 39°46' W 009°41'611.6
2017-Jul-14 19:30N 39°51' W 009°37'611.3
2017-Jul-14 19:00N 39°56' W 009°34'511.0
2017-Jul-14 18:31N 40°01' W 009°31'811.2
2017-Jul-14 17:47N 40°08' W 009°26'811.0
2017-Jul-14 17:03N 40°16' W 009°21'111.1
2017-Jul-14 17:00N 40°16' W 009°21'611.2
2017-Jul-14 16:30N 40°21' W 009°17'611.1
2017-Jul-14 16:00N 40°26' W 009°14'611.2
2017-Jul-14 15:30N 40°31' W 009°10'611.3
2017-Jul-14 15:00N 40°36' W 009°07'511.0
2017-Jul-14 14:30N 40°41' W 009°04'711.0
2017-Jul-14 13:52N 40°47' W 008°60'410.9
2017-Jul-14 13:30N 40°51' W 008°58'1311.0
2017-Jul-14 12:18N 41°03' W 008°50'510.5
2017-Jul-14 11:49N 41°07' W 008°47'3 9.4
2017-Jul-14 11:30N 41°10' W 008°45'2 4.2
2017-Jul-14 10:57N 41°11' W 008°42'0 0.2
2017-Jul-14 10:30N 41°11' W 008°43'0 0.0
2017-Jul-14 10:00N 41°11' W 008°43'0 0.0
2017-Jul-14 09:24N 41°11' W 008°43'0 0.0
2017-Jul-14 09:00N 41°11' W 008°43'0 0.0
2017-Jul-14 08:30N 41°11' W 008°43'0 0.0
2017-Jul-14 04:48N 41°11' W 008°43'0 0.0
2017-Jul-14 04:29N 41°11' W 008°43'0 0.0
2017-Jul-14 04:00N 41°11' W 008°43'0 0.0
2017-Jul-14 01:14N 41°11' W 008°43'0 0.0
2017-Jul-14 00:59N 41°11' W 008°43'0 0.0
2017-Jul-13 22:25N 41°11' W 008°43'0 0.0
2017-Jul-13 21:56N 41°11' W 008°43'0 0.0
2017-Jul-13 21:30N 41°11' W 008°43'0 0.0
2017-Jul-13 20:27N 41°11' W 008°43'0 0.0
2017-Jul-13 20:00N 41°11' W 008°43'0 0.0
2017-Jul-13 19:30N 41°11' W 008°43'0 0.0
2017-Jul-13 18:42N 41°11' W 008°43'0 0.0
2017-Jul-13 15:44N 41°11' W 008°43'27 1.3
2017-Jul-12 18:47N 40°48' W 008°60'3 9.6
2017-Jul-12 18:30N 40°46' W 009°02'63 9.5
2017-Jul-12 11:51N 39°48' W 009°35'4 9.6
2017-Jul-12 11:26N 39°44' W 009°37'5 9.6
2017-Jul-12 10:57N 39°40' W 009°40'4 9.8
2017-Jul-12 10:30N 39°36' W 009°42'5 9.8
2017-Jul-12 10:00N 39°32' W 009°45'5 9.8
2017-Jul-12 09:29N 39°27' W 009°48'11 9.5
2017-Jul-12 08:22N 39°17' W 009°54'3 9.3
2017-Jul-12 08:00N 39°14' W 009°55'5 9.1
2017-Jul-12 07:30N 39°10' W 009°57'5 9.9
2017-Jul-12 07:00N 39°05' W 009°57'510.0
2017-Jul-12 06:30N 38°60' W 009°57'5 9.4
2017-Jul-12 06:01N 38°55' W 009°57'5 9.0
2017-Jul-12 05:30N 38°51' W 009°57'5 9.1
2017-Jul-12 05:00N 38°46' W 009°57'5 9.4
2017-Jul-12 04:30N 38°41' W 009°57'5 9.2
2017-Jul-12 04:00N 38°37' W 009°55'5 9.0
2017-Jul-12 03:31N 38°33' W 009°54'4 8.7
2017-Jul-12 03:00N 38°28' W 009°53'5 9.0
2017-Jul-12 02:30N 38°24' W 009°52'10 8.7
2017-Jul-12 01:24N 38°17' W 009°43'410.0
2017-Jul-12 01:00N 38°15' W 009°39'5 9.9
2017-Jul-12 00:29N 38°13' W 009°33'610.1
2017-Jul-11 23:56N 38°10' W 009°26'410.5
2017-Jul-11 23:30N 38°08' W 009°21'510.3
2017-Jul-11 23:00N 38°06' W 009°16'510.0
2017-Jul-11 22:30N 38°04' W 009°10'510.3
2017-Jul-11 22:00N 38°01' W 009°04'510.2
2017-Jul-11 21:30N 37°59' W 008°59'5 9.1
2017-Jul-11 21:00N 37°55' W 008°54'2 3.9
2017-Jul-11 20:30N 37°55' W 008°52'0 0.0
2017-Jul-11 20:00N 37°55' W 008°52'0 0.0
2017-Jul-11 19:30N 37°55' W 008°52'0 0.0
2017-Jul-11 19:00N 37°55' W 008°52'0 0.0
2017-Jul-11 18:30N 37°55' W 008°52'0 0.0
2017-Jul-11 18:00N 37°55' W 008°52'0 0.0
2017-Jul-11 17:30N 37°55' W 008°52'0 0.0
2017-Jul-11 17:00N 37°55' W 008°52'0 0.0
2017-Jul-11 16:30N 37°55' W 008°52'0 0.0
2017-Jul-11 16:00N 37°55' W 008°52'0 0.0
2017-Jul-11 15:30N 37°55' W 008°52'0 0.0
2017-Jul-11 15:00N 37°55' W 008°52'0 0.0
2017-Jul-11 14:30N 37°55' W 008°52'0 0.0
2017-Jul-11 14:00N 37°55' W 008°52'0 0.0
2017-Jul-11 13:30N 37°55' W 008°52'0 0.0
2017-Jul-11 13:00N 37°55' W 008°52'0 0.0
2017-Jul-11 12:30N 37°55' W 008°52'0 0.0
2017-Jul-11 12:00N 37°55' W 008°52'0 0.0
2017-Jul-11 11:30N 37°55' W 008°52'0 0.0
2017-Jul-11 11:00N 37°55' W 008°52'0 0.0
2017-Jul-11 10:30N 37°55' W 008°52'0 0.0
2017-Jul-11 10:00N 37°55' W 008°52'0 0.0
2017-Jul-11 09:30N 37°55' W 008°52'0 0.0
2017-Jul-11 09:00N 37°55' W 008°52'0 0.0
2017-Jul-11 08:30N 37°55' W 008°52'0 0.0
2017-Jul-11 08:00N 37°55' W 008°52'0 0.0
2017-Jul-11 07:30N 37°55' W 008°52'0 0.1
2017-Jul-11 07:00N 37°55' W 008°52'0 0.0
2017-Jul-11 06:30N 37°55' W 008°52'0 0.0
2017-Jul-11 06:00N 37°55' W 008°52'0 0.0
2017-Jul-11 05:30N 37°55' W 008°52'0 0.0
2017-Jul-11 05:00N 37°55' W 008°52'0 0.0
2017-Jul-11 04:30N 37°55' W 008°52'0 0.0
2017-Jul-11 04:00N 37°55' W 008°52'0 0.0
2017-Jul-11 03:30N 37°55' W 008°52'0 0.0
2017-Jul-11 03:00N 37°55' W 008°52'0 0.0
2017-Jul-11 02:30N 37°55' W 008°52'0 0.0
2017-Jul-11 02:00N 37°55' W 008°52'0 0.0
2017-Jul-11 01:30N 37°55' W 008°52'0 0.0
2017-Jul-11 01:00N 37°55' W 008°52'0 0.0
2017-Jul-11 00:30N 37°55' W 008°52'0 0.0
2017-Jul-11 00:00N 37°55' W 008°52'0 0.0
2017-Jul-10 23:30N 37°55' W 008°52'0 0.0
2017-Jul-10 23:00N 37°55' W 008°52'0 0.0
2017-Jul-10 22:30N 37°55' W 008°52'0 0.0
2017-Jul-10 22:00N 37°55' W 008°52'0 0.0
2017-Jul-10 21:30N 37°55' W 008°52'0 0.1
2017-Jul-10 21:00N 37°55' W 008°52'0 0.0
2017-Jul-10 20:30N 37°55' W 008°52'0 0.0
2017-Jul-10 20:00N 37°55' W 008°52'0 0.0
2017-Jul-10 19:30N 37°55' W 008°52'0 0.0
2017-Jul-10 19:00N 37°55' W 008°52'0 0.0
2017-Jul-10 18:30N 37°55' W 008°52'0 0.0
2017-Jul-10 18:00N 37°55' W 008°52'0 0.0
2017-Jul-10 17:30N 37°55' W 008°52'0 0.0
2017-Jul-10 17:00N 37°55' W 008°52'0 0.0
2017-Jul-10 16:30N 37°55' W 008°52'0 0.0
2017-Jul-10 15:54N 37°55' W 008°52'0 0.0
2017-Jul-10 15:30N 37°55' W 008°52'0 0.0
2017-Jul-10 15:00N 37°55' W 008°52'0 0.0
2017-Jul-10 14:30N 37°55' W 008°52'0 0.0
2017-Jul-10 14:00N 37°55' W 008°52'0 0.0
2017-Jul-10 13:30N 37°55' W 008°52'0 0.0
2017-Jul-10 13:00N 37°55' W 008°52'0 0.0
2017-Jul-10 12:30N 37°55' W 008°52'0 0.0
2017-Jul-10 12:00N 37°55' W 008°52'0 0.0
2017-Jul-10 11:30N 37°55' W 008°52'0 0.0
2017-Jul-10 11:00N 37°55' W 008°52'0 0.0
2017-Jul-10 10:30N 37°55' W 008°52'0 0.0
2017-Jul-10 10:00N 37°55' W 008°52'0 0.0
2017-Jul-10 09:30N 37°55' W 008°52'0 0.0
2017-Jul-10 09:00N 37°55' W 008°52'0 0.0
2017-Jul-10 08:30N 37°55' W 008°52'0 0.0
2017-Jul-10 08:00N 37°55' W 008°52'0 0.0
2017-Jul-10 07:30N 37°55' W 008°52'0 0.0
2017-Jul-10 07:00N 37°55' W 008°52'0 0.0
2017-Jul-10 06:30N 37°55' W 008°52'0 0.0
2017-Jul-10 06:00N 37°55' W 008°52'0 0.0
2017-Jul-10 05:30N 37°55' W 008°52'0 0.0
2017-Jul-10 05:00N 37°55' W 008°52'0 0.0
2017-Jul-10 04:30N 37°55' W 008°52'0 0.0
2017-Jul-10 04:00N 37°55' W 008°52'0 0.0
2017-Jul-10 03:30N 37°55' W 008°52'0 0.0
2017-Jul-10 03:00N 37°55' W 008°52'0 0.0
2017-Jul-10 02:30N 37°55' W 008°52'0 0.0
2017-Jul-10 02:00N 37°55' W 008°52'0 0.0
2017-Jul-10 01:30N 37°55' W 008°52'0 0.0
2017-Jul-10 01:00N 37°55' W 008°52'0 0.0
2017-Jul-10 00:30N 37°55' W 008°52'0 0.0
2017-Jul-10 00:00N 37°55' W 008°52'0 0.0
2017-Jul-09 23:30N 37°55' W 008°52'0 0.0
2017-Jul-09 23:00N 37°55' W 008°52'0 0.0
2017-Jul-09 22:30N 37°55' W 008°52'0 0.0
2017-Jul-09 22:00N 37°55' W 008°52'0 0.0
2017-Jul-09 21:30N 37°55' W 008°52'0 0.0
2017-Jul-09 21:00N 37°55' W 008°52'0 0.0
2017-Jul-09 20:30N 37°55' W 008°52'0 0.0
2017-Jul-09 20:00N 37°55' W 008°52'0 0.0
2017-Jul-09 19:30N 37°55' W 008°52'0 0.0
2017-Jul-09 19:00N 37°55' W 008°52'0 0.0
2017-Jul-09 18:30N 37°55' W 008°52'0 0.0
2017-Jul-09 18:00N 37°55' W 008°52'0 0.0
2017-Jul-09 17:30N 37°55' W 008°52'0 0.0
2017-Jul-09 17:00N 37°55' W 008°52'0 0.0
2017-Jul-09 16:30N 37°55' W 008°52'0 0.1
2017-Jul-09 16:00N 37°55' W 008°52'0 0.0
2017-Jul-09 15:30N 37°55' W 008°52'0 0.0
2017-Jul-09 15:00N 37°55' W 008°52'0 0.0
2017-Jul-09 14:30N 37°55' W 008°52'0 0.0
2017-Jul-09 14:00N 37°55' W 008°52'0 0.0
2017-Jul-09 13:30N 37°55' W 008°52'0 0.0
2017-Jul-09 13:00N 37°55' W 008°52'0 0.0
2017-Jul-09 12:30N 37°55' W 008°52'0 0.0
2017-Jul-09 12:00N 37°55' W 008°52'0 0.0
2017-Jul-09 11:30N 37°55' W 008°52'0 0.0
2017-Jul-09 11:00N 37°55' W 008°52'0 0.0
2017-Jul-09 10:30N 37°55' W 008°52'0 0.0
2017-Jul-09 10:00N 37°55' W 008°52'1 1.1
2017-Jul-09 09:30N 37°56' W 008°52'2 3.1
2017-Jul-09 08:59N 37°57' W 008°53'0 0.0
2017-Jul-09 08:29N 37°57' W 008°53'0 0.0
2017-Jul-09 07:59N 37°57' W 008°53'0 0.0
2017-Jul-09 07:29N 37°57' W 008°53'0 0.0
2017-Jul-09 06:58N 37°57' W 008°53'0 0.0
2017-Jul-09 06:29N 37°57' W 008°53'0 0.0
2017-Jul-09 05:58N 37°57' W 008°53'0 0.0
2017-Jul-09 05:29N 37°57' W 008°53'0 0.0
2017-Jul-09 04:59N 37°57' W 008°53'0 0.0
2017-Jul-09 04:28N 37°57' W 008°53'0 0.0
2017-Jul-09 03:58N 37°57' W 008°53'0 0.0
2017-Jul-09 03:28N 37°57' W 008°53'0 0.0
2017-Jul-09 02:59N 37°57' W 008°53'0 0.0
2017-Jul-09 02:29N 37°57' W 008°53'0 0.0
2017-Jul-09 01:59N 37°57' W 008°53'0 0.0
2017-Jul-09 01:29N 37°57' W 008°53'0 0.0
2017-Jul-09 00:58N 37°57' W 008°53'0 0.0
2017-Jul-09 00:26N 37°57' W 008°53'0 0.0
2017-Jul-08 23:59N 37°57' W 008°53'0 0.0
2017-Jul-08 23:31N 37°57' W 008°53'0 0.0
2017-Jul-08 23:01N 37°57' W 008°53'0 0.0
2017-Jul-08 22:31N 37°57' W 008°53'0 0.0
2017-Jul-08 22:00N 37°57' W 008°53'0 0.0
2017-Jul-08 21:31N 37°57' W 008°53'0 0.0
2017-Jul-08 21:00N 37°57' W 008°53'0 0.0
2017-Jul-08 20:30N 37°57' W 008°53'0 0.0
2017-Jul-08 20:01N 37°57' W 008°53'0 0.0
2017-Jul-08 19:31N 37°57' W 008°53'0 0.0
2017-Jul-08 19:01N 37°57' W 008°53'0 0.0
2017-Jul-08 18:30N 37°57' W 008°53'0 0.0
2017-Jul-08 18:01N 37°57' W 008°53'0 0.0
2017-Jul-08 17:31N 37°57' W 008°53'0 0.0
2017-Jul-08 17:01N 37°57' W 008°53'0 0.0
2017-Jul-08 16:31N 37°57' W 008°53'0 0.0
2017-Jul-08 16:01N 37°57' W 008°53'0 0.0
2017-Jul-08 15:31N 37°57' W 008°53'0 0.0
2017-Jul-08 15:01N 37°57' W 008°53'0 0.0
2017-Jul-08 14:01N 37°57' W 008°53'0 0.0
2017-Jul-08 13:31N 37°57' W 008°53'0 0.0
2017-Jul-08 13:01N 37°57' W 008°53'0 0.0
2017-Jul-08 12:31N 37°57' W 008°53'0 0.0
2017-Jul-08 12:00N 37°57' W 008°53'0 0.0
2017-Jul-08 11:31N 37°57' W 008°53'0 0.0
2017-Jul-08 11:00N 37°57' W 008°53'0 0.0
2017-Jul-08 10:31N 37°57' W 008°53'0 0.0
2017-Jul-08 10:01N 37°57' W 008°53'0 0.4
2017-Jul-08 09:30N 37°57' W 008°53'2 4.1
2017-Jul-08 09:01N 37°55' W 008°54'4 8.0
2017-Jul-08 08:31N 37°58' W 008°57'510.3
2017-Jul-08 08:01N 38°01' W 009°02'510.4
2017-Jul-08 07:31N 38°03' W 009°08'510.2
2017-Jul-08 07:01N 38°05' W 009°14'510.4
2017-Jul-08 06:30N 38°07' W 009°21'510.4
2017-Jul-08 06:00N 38°09' W 009°27'1310.1
2017-Jul-08 04:46N 38°13' W 009°42'  

Dump ship's entire track history